Time,TemperatureF,DewpointF,PressureIn,WindDirection,WindDirectionDegrees,WindSpeedMPH,WindSpeedGustMPH,Humidity,HourlyPrecipIn,Conditions,Clouds,dailyrainin,SoftwareType,DateUTC
2013-04-06 00:05:00,48.2,44.5,29.85,NNW,338,0.0,0.0,87,0.00,,,0.00,HomebrewedOnLinux,2013-04-06 04:05:00,
2013-04-06 00:15:00,48.0,44.3,29.85,NNW,338,0.0,0.0,87,0.00,,,0.00,HomebrewedOnLinux,2013-04-06 04:15:00,
2013-04-06 00:25:00,47.8,44.5,29.85,NNW,338,0.0,0.0,88,0.00,,,0.00,HomebrewedOnLinux,2013-04-06 04:25:00,
2013-04-06 00:30:00,47.8,44.5,29.85,NNW,338,0.0,0.0,88,0.00,,,0.00,HomebrewedOnLinux,2013-04-06 04:30:00,
2013-04-06 00:35:00,47.8,44.5,29.85,NNW,338,0.0,0.0,88,0.00,,,0.00,HomebrewedOnLinux,2013-04-06 04:35:00,
2013-04-06 00:40:00,47.7,44.3,29.85,NNW,338,0.0,0.0,88,0.00,,,0.00,HomebrewedOnLinux,2013-04-06 04:40:00,
2013-04-06 00:50:00,47.5,44.4,29.85,NNW,338,0.0,0.0,89,0.00,,,0.00,HomebrewedOnLinux,2013-04-06 04:50:00,
2013-04-06 00:55:00,47.5,44.4,29.85,NE,38,1.0,2.0,89,0.00,,,0.00,HomebrewedOnLinux,2013-04-06 04:55:00,
2013-04-06 01:00:00,47.3,43.9,29.85,North,2,0.0,1.0,88,0.00,,,0.00,HomebrewedOnLinux,2013-04-06 05:00:00,
2013-04-06 01:05:00,47.3,43.9,29.85,North,358,0.0,0.0,88,0.00,,,0.00,HomebrewedOnLinux,2013-04-06 05:05:00,
2013-04-06 01:15:00,47.1,44.0,29.85,NNW,338,0.0,0.0,89,0.00,,,0.00,HomebrewedOnLinux,2013-04-06 05:15:00,
2013-04-06 01:20:00,47.3,44.2,29.85,NNW,338,0.0,0.0,89,0.00,,,0.00,HomebrewedOnLinux,2013-04-06 05:20:00,
2013-04-06 01:30:00,47.1,44.0,29.85,NNE,30,1.0,3.0,89,0.00,,,0.00,HomebrewedOnLinux,2013-04-06 05:30:00,
2013-04-06 01:35:00,46.9,43.9,29.85,East,97,1.0,3.0,89,0.00,,,0.00,HomebrewedOnLinux,2013-04-06 05:35:00,
2013-04-06 01:40:00,46.8,43.7,29.85,SSW,204,1.0,2.0,89,0.00,,,0.00,HomebrewedOnLinux,2013-04-06 05:40:00,
2013-04-06 01:50:00,46.8,43.7,29.85,WNW,293,0.0,0.0,89,0.00,,,0.00,HomebrewedOnLinux,2013-04-06 05:50:00,
2013-04-06 02:00:00,46.6,43.5,29.85,WSW,257,1.0,2.0,89,0.00,,,0.00,HomebrewedOnLinux,2013-04-06 06:00:00,
2013-04-06 02:05:00,46.4,43.3,29.85,WNW,289,1.0,2.0,89,0.00,,,0.00,HomebrewedOnLinux,2013-04-06 06:05:00,
2013-04-06 02:10:00,46.2,43.2,29.85,WNW,293,0.0,0.0,89,0.00,,,0.00,HomebrewedOnLinux,2013-04-06 06:10:00,
2013-04-06 02:15:00,46.2,43.5,29.85,NNE,19,0.0,0.0,90,0.00,,,0.00,HomebrewedOnLinux,2013-04-06 06:15:00,
2013-04-06 02:25:00,46.2,43.5,29.88,NNE,20,0.0,0.0,90,0.00,,,0.00,HomebrewedOnLinux,2013-04-06 06:25:00,
2013-04-06 02:30:00,46.0,43.3,29.88,NNW,338,0.0,0.0,90,0.00,,,0.00,HomebrewedOnLinux,2013-04-06 06:30:00,
2013-04-06 02:35:00,46.0,43.3,29.88,NNW,338,0.0,0.0,90,0.00,,,0.00,HomebrewedOnLinux,2013-04-06 06:35:00,
2013-04-06 02:40:00,45.7,42.9,29.88,NNW,338,0.0,0.0,90,0.00,,,0.00,HomebrewedOnLinux,2013-04-06 06:40:00,
2013-04-06 02:45:00,45.7,42.9,29.88,NNW,338,0.0,0.0,90,0.00,,,0.00,HomebrewedOnLinux,2013-04-06 06:45:00,
2013-04-06 02:50:00,45.5,42.7,29.88,North,350,0.0,0.0,90,0.00,,,0.00,HomebrewedOnLinux,2013-04-06 06:50:00,
2013-04-06 03:00:00,45.5,42.7,29.88,North,3,0.0,0.0,90,0.00,,,0.00,HomebrewedOnLinux,2013-04-06 07:00:00,
2013-04-06 03:05:00,45.5,42.7,29.88,North,0,0.0,0.0,90,0.00,,,0.00,HomebrewedOnLinux,2013-04-06 07:05:00,
2013-04-06 03:15:00,45.3,42.6,29.88,NE,42,0.0,0.0,90,0.00,,,0.00,HomebrewedOnLinux,2013-04-06 07:15:00,
2013-04-06 03:20:00,45.1,42.4,29.88,NE,53,1.0,2.0,90,0.00,,,0.00,HomebrewedOnLinux,2013-04-06 07:20:00,
2013-04-06 03:25:00,45.1,42.4,29.88,NNE,14,0.0,1.0,90,0.00,,,0.00,HomebrewedOnLinux,2013-04-06 07:25:00,
2013-04-06 03:35:00,44.8,42.0,29.88,North,0,0.0,0.0,90,0.00,,,0.00,HomebrewedOnLinux,2013-04-06 07:35:00,
2013-04-06 03:40:00,44.6,41.9,29.88,North,0,0.0,0.0,90,0.00,,,0.00,HomebrewedOnLinux,2013-04-06 07:40:00,
2013-04-06 03:45:00,44.8,42.0,29.88,North,0,0.0,0.0,90,0.00,,,0.00,HomebrewedOnLinux,2013-04-06 07:45:00,
2013-04-06 03:50:00,44.8,42.0,29.88,North,0,0.0,0.0,90,0.00,,,0.00,HomebrewedOnLinux,2013-04-06 07:50:00,
2013-04-06 03:55:00,44.6,41.9,29.88,West,273,0.0,0.0,90,0.00,,,0.00,HomebrewedOnLinux,2013-04-06 07:55:00,
2013-04-06 04:00:00,44.6,42.1,29.88,West,270,0.0,0.0,91,0.00,,,0.00,HomebrewedOnLinux,2013-04-06 08:00:00,
2013-04-06 04:10:00,44.4,42.0,29.88,West,270,0.0,0.0,91,0.00,,,0.00,HomebrewedOnLinux,2013-04-06 08:10:00,
2013-04-06 04:20:00,44.2,41.8,29.88,West,270,0.0,0.0,91,0.00,,,0.00,HomebrewedOnLinux,2013-04-06 08:20:00,
2013-04-06 04:25:00,44.2,41.8,29.88,West,270,0.0,0.0,91,0.00,,,0.00,HomebrewedOnLinux,2013-04-06 08:25:00,
2013-04-06 04:35:00,44.1,41.6,29.88,West,270,0.0,0.0,91,0.00,,,0.00,HomebrewedOnLinux,2013-04-06 08:35:00,
2013-04-06 04:45:00,43.9,41.4,29.91,West,270,0.0,0.0,91,0.00,,,0.00,HomebrewedOnLinux,2013-04-06 08:45:00,
2013-04-06 04:50:00,43.7,41.2,29.91,West,270,0.0,0.0,91,0.00,,,0.00,HomebrewedOnLinux,2013-04-06 08:50:00,
2013-04-06 04:55:00,43.5,41.1,29.91,West,270,0.0,0.0,91,0.00,,,0.00,HomebrewedOnLinux,2013-04-06 08:55:00,
2013-04-06 05:00:00,43.5,41.1,29.91,West,270,0.0,0.0,91,0.00,,,0.00,HomebrewedOnLinux,2013-04-06 09:00:00,
2013-04-06 05:05:00,43.5,41.1,29.91,West,270,0.0,0.0,91,0.00,,,0.00,HomebrewedOnLinux,2013-04-06 09:05:00,
2013-04-06 05:10:00,43.3,40.9,29.91,West,270,0.0,0.0,91,0.00,,,0.00,HomebrewedOnLinux,2013-04-06 09:10:00,
2013-04-06 05:20:00,43.3,40.9,29.91,West,270,0.0,0.0,91,0.00,,,0.00,HomebrewedOnLinux,2013-04-06 09:20:00,
2013-04-06 05:25:00,43.3,40.9,29.91,West,270,0.0,0.0,91,0.00,,,0.00,HomebrewedOnLinux,2013-04-06 09:25:00,
2013-04-06 05:35:00,43.3,40.9,29.91,West,270,0.0,0.0,91,0.00,,,0.00,HomebrewedOnLinux,2013-04-06 09:35:00,
2013-04-06 05:40:00,43.2,40.7,29.91,West,270,0.0,0.0,91,0.00,,,0.00,HomebrewedOnLinux,2013-04-06 09:40:00,
2013-04-06 05:45:00,43.0,40.5,29.91,West,270,0.0,0.0,91,0.00,,,0.00,HomebrewedOnLinux,2013-04-06 09:45:00,
2013-04-06 05:55:00,43.0,40.5,29.91,West,270,0.0,0.0,91,0.00,,,0.00,HomebrewedOnLinux,2013-04-06 09:55:00,
2013-04-06 06:05:00,42.8,40.4,29.91,West,270,0.0,0.0,91,0.00,,,0.00,HomebrewedOnLinux,2013-04-06 10:05:00,
2013-04-06 06:10:00,42.6,40.2,29.88,West,270,0.0,0.0,91,0.00,,,0.00,HomebrewedOnLinux,2013-04-06 10:10:00,
2013-04-06 06:15:00,42.4,40.0,29.88,West,270,0.0,0.0,91,0.00,,,0.00,HomebrewedOnLinux,2013-04-06 10:15:00,
2013-04-06 06:20:00,42.4,40.0,29.88,West,270,0.0,0.0,91,0.00,,,0.00,HomebrewedOnLinux,2013-04-06 10:20:00,
2013-04-06 06:30:00,42.4,40.0,29.91,West,270,0.0,0.0,91,0.00,,,0.00,HomebrewedOnLinux,2013-04-06 10:30:00,
2013-04-06 06:40:00,42.1,39.6,29.91,NNE,13,0.0,0.0,91,0.00,,,0.00,HomebrewedOnLinux,2013-04-06 10:40:00,
2013-04-06 06:45:00,42.1,39.6,29.91,NNE,22,0.0,0.0,91,0.00,,,0.00,HomebrewedOnLinux,2013-04-06 10:45:00,
2013-04-06 06:50:00,41.9,39.5,29.91,North,10,0.0,0.0,91,0.00,,,0.00,HomebrewedOnLinux,2013-04-06 10:50:00,
2013-04-06 07:00:00,41.9,39.5,29.91,North,0,0.0,0.0,91,0.00,,,0.00,HomebrewedOnLinux,2013-04-06 11:00:00,
2013-04-06 07:05:00,42.1,39.6,29.91,North,0,0.0,0.0,91,0.00,,,0.00,HomebrewedOnLinux,2013-04-06 11:05:00,
2013-04-06 07:10:00,42.1,39.6,29.94,North,0,0.0,0.0,91,0.00,,,0.00,HomebrewedOnLinux,2013-04-06 11:10:00,
2013-04-06 07:15:00,41.9,39.5,29.94,North,0,0.0,0.0,91,0.00,,,0.00,HomebrewedOnLinux,2013-04-06 11:15:00,
2013-04-06 07:20:00,41.9,39.5,29.94,North,0,0.0,0.0,91,0.00,,,0.00,HomebrewedOnLinux,2013-04-06 11:20:00,
2013-04-06 07:30:00,41.9,39.5,29.94,North,0,0.0,0.0,91,0.00,,,0.00,HomebrewedOnLinux,2013-04-06 11:30:00,
2013-04-06 07:40:00,42.1,39.9,29.97,North,0,0.0,0.0,92,0.00,,,0.00,HomebrewedOnLinux,2013-04-06 11:40:00,
2013-04-06 07:50:00,42.3,40.2,29.97,North,0,0.0,0.0,92,0.00,,,0.00,HomebrewedOnLinux,2013-04-06 11:50:00,
2013-04-06 07:55:00,42.3,40.1,29.97,North,0,0.0,0.0,92,0.00,,,0.00,HomebrewedOnLinux,2013-04-06 11:55:00,
2013-04-06 08:00:00,42.4,40.3,29.97,North,0,0.0,0.0,92,0.00,,,0.00,HomebrewedOnLinux,2013-04-06 12:00:00,
2013-04-06 08:05:00,42.8,40.8,29.97,North,0,0.0,0.0,93,0.00,,,0.00,HomebrewedOnLinux,2013-04-06 12:05:00,
2013-04-06 08:15:00,43.3,41.5,29.97,NNE,22,0.0,0.0,93,0.00,,,0.00,HomebrewedOnLinux,2013-04-06 12:15:00,
2013-04-06 08:20:00,43.5,41.9,29.97,NNE,22,0.0,0.0,94,0.00,,,0.00,HomebrewedOnLinux,2013-04-06 12:20:00,
2013-04-06 08:30:00,44.4,42.8,29.97,NNE,22,0.0,0.0,94,0.00,,,0.00,HomebrewedOnLinux,2013-04-06 12:30:00,
2013-04-06 08:35:00,45.0,43.3,29.97,NNE,22,0.0,0.0,94,0.00,,,0.00,HomebrewedOnLinux,2013-04-06 12:35:00,
2013-04-06 08:40:00,45.3,43.7,29.97,NNE,22,0.0,0.0,94,0.00,,,0.00,HomebrewedOnLinux,2013-04-06 12:40:00,
2013-04-06 08:50:00,46.4,45.0,29.97,WSW,252,0.0,0.0,95,0.00,,,0.00,HomebrewedOnLinux,2013-04-06 12:50:00,
2013-04-06 09:00:00,47.3,45.9,29.97,NNE,22,0.0,0.0,95,0.00,,,0.00,HomebrewedOnLinux,2013-04-06 13:00:00,
2013-04-06 09:05:00,47.8,46.5,29.97,NNE,22,0.0,0.0,95,0.00,,,0.00,HomebrewedOnLinux,2013-04-06 13:05:00,
2013-04-06 09:10:00,48.4,46.7,29.97,ENE,65,1.0,2.0,94,0.00,,,0.00,HomebrewedOnLinux,2013-04-06 13:10:00,
2013-04-06 09:20:00,49.6,47.9,29.97,East,93,0.0,0.0,94,0.00,,,0.00,HomebrewedOnLinux,2013-04-06 13:20:00,
2013-04-06 09:25:00,50.2,48.2,29.97,ENE,74,0.0,0.0,93,0.00,,,0.00,HomebrewedOnLinux,2013-04-06 13:25:00,
2013-04-06 09:30:00,50.7,48.5,29.97,NE,38,0.0,2.0,92,0.00,,,0.00,HomebrewedOnLinux,2013-04-06 13:30:00,
2013-04-06 09:35:00,51.1,48.6,29.97,NE,45,0.0,0.0,91,0.00,,,0.00,HomebrewedOnLinux,2013-04-06 13:35:00,
2013-04-06 09:40:00,51.4,48.7,29.97,ENE,59,1.0,2.0,90,0.00,,,0.00,HomebrewedOnLinux,2013-04-06 13:40:00,
2013-04-06 09:45:00,52.0,48.8,29.97,NE,35,1.0,3.0,89,0.00,,,0.00,HomebrewedOnLinux,2013-04-06 13:45:00,
2013-04-06 09:50:00,52.5,48.8,29.97,NE,54,1.0,2.0,87,0.00,,,0.00,HomebrewedOnLinux,2013-04-06 13:50:00,
2013-04-06 10:00:00,53.6,49.3,29.97,NE,41,1.0,3.0,85,0.00,,,0.00,HomebrewedOnLinux,2013-04-06 14:00:00,
2013-04-06 10:10:00,54.7,49.5,29.97,SE,131,2.0,2.0,83,0.00,,,0.00,HomebrewedOnLinux,2013-04-06 14:10:00,
2013-04-06 10:15:00,55.2,49.5,29.97,ENE,65,2.0,3.0,81,0.00,,,0.00,HomebrewedOnLinux,2013-04-06 14:15:00,
2013-04-06 10:25:00,56.7,49.4,29.97,ESE,123,1.0,2.0,77,0.00,,,0.00,HomebrewedOnLinux,2013-04-06 14:25:00,
2013-04-06 10:30:00,57.4,49.2,29.97,East,89,1.0,3.0,74,0.00,,,0.00,HomebrewedOnLinux,2013-04-06 14:30:00,
2013-04-06 10:35:00,58.3,50.1,29.97,East,85,2.0,4.0,74,0.00,,,0.00,HomebrewedOnLinux,2013-04-06 14:35:00,
2013-04-06 10:40:00,58.8,49.8,29.97,East,95,2.0,4.0,72,0.00,,,0.00,HomebrewedOnLinux,2013-04-06 14:40:00,
2013-04-06 10:45:00,59.4,49.8,29.97,South,180,2.0,3.0,71,0.00,,,0.00,HomebrewedOnLinux,2013-04-06 14:45:00,
2013-04-06 10:50:00,60.1,50.3,29.97,East,99,2.0,3.0,70,0.00,,,0.00,HomebrewedOnLinux,2013-04-06 14:50:00,
2013-04-06 10:55:00,60.8,50.1,29.97,SSW,200,2.0,3.0,68,0.00,,,0.00,HomebrewedOnLinux,2013-04-06 14:55:00,
2013-04-06 11:05:00,62.2,50.5,29.97,SSE,167,2.0,3.0,65,0.00,,,0.00,HomebrewedOnLinux,2013-04-06 15:05:00,
2013-04-06 11:10:00,62.8,50.5,29.97,ENE,71,3.0,6.0,64,0.00,,,0.00,HomebrewedOnLinux,2013-04-06 15:10:00,
2013-04-06 11:20:00,64.0,49.7,29.97,South,179,3.0,5.0,60,0.00,,,0.00,HomebrewedOnLinux,2013-04-06 15:20:00,
2013-04-06 11:25:00,64.6,47.9,30.00,SSE,158,3.0,4.0,55,0.00,,,0.00,HomebrewedOnLinux,2013-04-06 15:25:00,
2013-04-06 11:35:00,65.5,47.7,30.00,SSE,149,2.0,6.0,53,0.00,,,0.00,HomebrewedOnLinux,2013-04-06 15:35:00,
2013-04-06 11:45:00,66.0,47.3,30.00,SE,145,3.0,6.0,51,0.00,,,0.00,HomebrewedOnLinux,2013-04-06 15:45:00,
2013-04-06 11:50:00,66.2,46.9,30.00,South,185,3.0,5.0,50,0.00,,,0.00,HomebrewedOnLinux,2013-04-06 15:50:00,
2013-04-06 11:55:00,66.6,45.5,30.00,SW,229,1.0,5.0,47,0.00,,,0.00,HomebrewedOnLinux,2013-04-06 15:55:00,
2013-04-06 12:00:00,66.7,45.7,30.00,SSW,194,4.0,7.0,47,0.00,,,0.00,HomebrewedOnLinux,2013-04-06 16:00:00,
2013-04-06 12:10:00,67.3,45.0,30.00,WSW,238,3.0,6.0,45,0.00,,,0.00,HomebrewedOnLinux,2013-04-06 16:10:00,
2013-04-06 12:20:00,68.2,45.4,30.00,SW,224,2.0,4.0,44,0.00,,,0.00,HomebrewedOnLinux,2013-04-06 16:20:00,
2013-04-06 12:25:00,68.5,45.3,30.00,East,100,3.0,4.0,43,0.00,,,0.00,HomebrewedOnLinux,2013-04-06 16:25:00,
2013-04-06 12:30:00,68.7,44.9,30.00,ESE,106,3.0,6.0,42,0.00,,,0.00,HomebrewedOnLinux,2013-04-06 16:30:00,
2013-04-06 12:40:00,68.9,45.2,30.00,SSW,197,3.0,6.0,43,0.00,,,0.00,HomebrewedOnLinux,2013-04-06 16:40:00,
2013-04-06 12:45:00,68.7,43.9,30.00,WSW,243,3.0,4.0,41,0.00,,,0.00,HomebrewedOnLinux,2013-04-06 16:45:00,
2013-04-06 12:55:00,69.3,44.9,29.97,West,271,2.0,4.0,42,0.00,,,0.00,HomebrewedOnLinux,2013-04-06 16:55:00,
2013-04-06 13:00:00,69.6,44.7,29.97,South,180,4.0,6.0,41,0.00,,,0.00,HomebrewedOnLinux,2013-04-06 17:00:00,
2013-04-06 13:05:00,69.4,42.7,29.97,West,267,4.0,9.0,38,0.00,,,0.00,HomebrewedOnLinux,2013-04-06 17:05:00,
2013-04-06 13:15:00,69.1,42.5,29.97,West,260,2.0,4.0,38,0.00,,,0.00,HomebrewedOnLinux,2013-04-06 17:15:00,
2013-04-06 13:20:00,69.1,41.8,29.97,West,278,2.0,6.0,37,0.00,,,0.00,HomebrewedOnLinux,2013-04-06 17:20:00,
2013-04-06 13:30:00,68.9,41.5,29.97,West,274,3.0,5.0,37,0.00,,,0.00,HomebrewedOnLinux,2013-04-06 17:30:00,
2013-04-06 13:40:00,69.3,41.2,29.97,WSW,246,3.0,6.0,36,0.00,,,0.00,HomebrewedOnLinux,2013-04-06 17:40:00,
2013-04-06 13:45:00,69.6,41.3,29.97,ESE,103,3.0,5.0,36,0.00,,,0.00,HomebrewedOnLinux,2013-04-06 17:45:00,
2013-04-06 13:50:00,70.2,42.1,29.97,SSE,165,2.0,3.0,36,0.00,,,0.00,HomebrewedOnLinux,2013-04-06 17:50:00,
2013-04-06 13:55:00,70.5,42.6,29.94,WSW,241,2.0,5.0,36,0.00,,,0.00,HomebrewedOnLinux,2013-04-06 17:55:00,
2013-04-06 14:05:00,71.4,42.5,29.94,West,272,2.0,3.0,35,0.00,,,0.00,HomebrewedOnLinux,2013-04-06 18:05:00,
2013-04-06 14:15:00,71.6,42.6,29.97,West,263,3.0,6.0,35,0.00,,,0.00,HomebrewedOnLinux,2013-04-06 18:15:00,
2013-04-06 14:25:00,71.6,41.7,29.97,West,269,3.0,4.0,34,0.00,,,0.00,HomebrewedOnLinux,2013-04-06 18:25:00,
2013-04-06 14:30:00,71.8,42.0,29.97,South,181,3.0,5.0,34,0.00,,,0.00,HomebrewedOnLinux,2013-04-06 18:30:00,
2013-04-06 14:35:00,72.1,42.4,29.97,NW,307,3.0,5.0,34,0.00,,,0.00,HomebrewedOnLinux,2013-04-06 18:35:00,
2013-04-06 14:40:00,72.5,42.2,29.97,NW,324,3.0,4.0,34,0.00,,,0.00,HomebrewedOnLinux,2013-04-06 18:40:00,
2013-04-06 14:50:00,74.3,43.9,29.97,East,100,2.0,4.0,34,0.00,,,0.00,HomebrewedOnLinux,2013-04-06 18:50:00,
2013-04-06 15:00:00,76.6,45.5,29.97,ENE,73,2.0,4.0,33,0.00,,,0.00,HomebrewedOnLinux,2013-04-06 19:00:00,
2013-04-06 15:05:00,76.8,45.5,29.97,ESE,105,2.0,3.0,33,0.00,,,0.00,HomebrewedOnLinux,2013-04-06 19:05:00,
2013-04-06 15:10:00,76.5,45.2,29.94,SE,144,3.0,5.0,33,0.00,,,0.00,HomebrewedOnLinux,2013-04-06 19:10:00,
2013-04-06 15:15:00,77.0,45.0,29.94,WSW,243,3.0,4.0,32,0.00,,,0.00,HomebrewedOnLinux,2013-04-06 19:15:00,
2013-04-06 15:25:00,76.3,44.2,29.94,SSW,211,3.0,4.0,32,0.00,,,0.00,HomebrewedOnLinux,2013-04-06 19:25:00,
2013-04-06 15:30:00,75.6,43.6,29.94,SE,146,3.0,6.0,32,0.00,,,0.00,HomebrewedOnLinux,2013-04-06 19:30:00,
2013-04-06 15:35:00,74.7,42.8,29.94,ESE,103,2.0,3.0,32,0.00,,,0.00,HomebrewedOnLinux,2013-04-06 19:35:00,
2013-04-06 15:45:00,73.0,41.6,29.94,East,97,2.0,3.0,32,0.00,,,0.00,HomebrewedOnLinux,2013-04-06 19:45:00,
2013-04-06 15:55:00,72.7,41.4,29.94,NE,39,2.0,4.0,32,0.00,,,0.00,HomebrewedOnLinux,2013-04-06 19:55:00,
2013-04-06 16:00:00,72.3,40.8,29.94,NE,45,3.0,4.0,32,0.00,,,0.00,HomebrewedOnLinux,2013-04-06 20:00:00,
2013-04-06 16:05:00,72.1,40.6,29.94,North,2,2.0,3.0,32,0.00,,,0.00,HomebrewedOnLinux,2013-04-06 20:05:00,
2013-04-06 16:10:00,72.1,40.6,29.91,South,177,2.0,3.0,32,0.00,,,0.00,HomebrewedOnLinux,2013-04-06 20:10:00,
2013-04-06 16:15:00,72.5,41.0,29.91,West,264,1.0,3.0,32,0.00,,,0.00,HomebrewedOnLinux,2013-04-06 20:15:00,
2013-04-06 16:25:00,73.4,41.7,29.91,SSW,197,2.0,2.0,32,0.00,,,0.00,HomebrewedOnLinux,2013-04-06 20:25:00,
2013-04-06 16:30:00,73.8,42.0,29.91,SW,223,1.0,2.0,32,0.00,,,0.00,HomebrewedOnLinux,2013-04-06 20:30:00,
2013-04-06 16:35:00,73.6,41.9,29.91,North,0,1.0,3.0,32,0.00,,,0.00,HomebrewedOnLinux,2013-04-06 20:35:00,
2013-04-06 16:40:00,73.6,41.9,29.91,West,262,3.0,5.0,32,0.00,,,0.00,HomebrewedOnLinux,2013-04-06 20:40:00,
2013-04-06 16:45:00,73.6,41.9,29.91,SSW,213,3.0,4.0,32,0.00,,,0.00,HomebrewedOnLinux,2013-04-06 20:45:00,
2013-04-06 16:55:00,73.4,41.7,29.91,NW,304,2.0,4.0,32,0.00,,,0.00,HomebrewedOnLinux,2013-04-06 20:55:00,
2013-04-06 17:00:00,73.4,41.7,29.91,West,259,3.0,4.0,32,0.00,,,0.00,HomebrewedOnLinux,2013-04-06 21:00:00,
2013-04-06 17:10:00,73.4,41.7,29.88,SSE,165,1.0,4.0,32,0.00,,,0.00,HomebrewedOnLinux,2013-04-06 21:10:00,
2013-04-06 17:20:00,73.4,41.7,29.88,SW,218,3.0,5.0,32,0.00,,,0.00,HomebrewedOnLinux,2013-04-06 21:20:00,
2013-04-06 17:25:00,72.9,41.3,29.88,SSW,196,2.0,3.0,32,0.00,,,0.00,HomebrewedOnLinux,2013-04-06 21:25:00,
2013-04-06 17:35:00,72.5,41.0,29.88,NW,320,1.0,3.0,32,0.00,,,0.00,HomebrewedOnLinux,2013-04-06 21:35:00,
2013-04-06 17:45:00,72.1,40.8,29.91,WNW,295,2.0,3.0,32,0.00,,,0.00,HomebrewedOnLinux,2013-04-06 21:45:00,
2013-04-06 17:50:00,72.0,40.5,29.91,WSW,257,1.0,3.0,32,0.00,,,0.00,HomebrewedOnLinux,2013-04-06 21:50:00,
2013-04-06 17:55:00,72.0,41.1,29.91,WSW,249,0.0,1.0,33,0.00,,,0.00,HomebrewedOnLinux,2013-04-06 21:55:00,
2013-04-06 18:00:00,72.0,40.6,29.91,SSW,198,2.0,3.0,32,0.00,,,0.00,HomebrewedOnLinux,2013-04-06 22:00:00,
2013-04-06 18:10:00,71.2,40.6,29.91,West,261,2.0,3.0,33,0.00,,,0.00,HomebrewedOnLinux,2013-04-06 22:10:00,
2013-04-06 18:15:00,71.1,40.5,29.91,WSW,258,1.0,3.0,33,0.00,,,0.00,HomebrewedOnLinux,2013-04-06 22:15:00,
2013-04-06 18:25:00,70.5,40.0,29.91,West,272,1.0,3.0,33,0.00,,,0.00,HomebrewedOnLinux,2013-04-06 22:25:00,
2013-04-06 18:35:00,70.5,40.0,29.91,WNW,287,0.0,1.0,33,0.00,,,0.00,HomebrewedOnLinux,2013-04-06 22:35:00,
2013-04-06 18:40:00,70.3,40.5,29.91,West,260,0.0,1.0,34,0.00,,,0.00,HomebrewedOnLinux,2013-04-06 22:40:00,
2013-04-06 18:50:00,70.2,40.5,29.91,WSW,246,0.0,2.0,34,0.00,,,0.00,HomebrewedOnLinux,2013-04-06 22:50:00,
2013-04-06 18:55:00,70.0,40.3,29.91,West,268,2.0,3.0,34,0.00,,,0.00,HomebrewedOnLinux,2013-04-06 22:55:00,
2013-04-06 19:05:00,69.8,40.5,29.91,SW,230,1.0,2.0,34,0.00,,,0.00,HomebrewedOnLinux,2013-04-06 23:05:00,
2013-04-06 19:10:00,69.4,40.6,29.91,SW,230,1.0,2.0,35,0.00,,,0.00,HomebrewedOnLinux,2013-04-06 23:10:00,
2013-04-06 19:20:00,68.5,40.9,29.91,West,274,2.0,2.0,36,0.00,,,0.00,HomebrewedOnLinux,2013-04-06 23:20:00,
2013-04-06 19:25:00,68.4,40.6,29.91,West,279,2.0,2.0,36,0.00,,,0.00,HomebrewedOnLinux,2013-04-06 23:25:00,
2013-04-06 19:30:00,68.0,40.6,29.91,NNW,333,0.0,2.0,37,0.00,,,0.00,HomebrewedOnLinux,2013-04-06 23:30:00,
2013-04-06 19:35:00,67.6,40.6,29.91,NW,318,2.0,2.0,37,0.00,,,0.00,HomebrewedOnLinux,2013-04-06 23:35:00,
2013-04-06 19:40:00,67.3,40.8,29.91,WSW,247,2.0,2.0,38,0.00,,,0.00,HomebrewedOnLinux,2013-04-06 23:40:00,
2013-04-06 19:45:00,67.1,41.2,29.91,North,-999,-999.0,-999.0,39,0.00,,,0.00,HomebrewedOnLinux,2013-04-06 23:45:00,
2013-04-06 19:50:00,66.6,41.5,29.91,NNW,338,0.0,0.0,40,0.00,,,0.00,HomebrewedOnLinux,2013-04-06 23:50:00,
2013-04-06 20:00:00,65.8,42.7,29.94,North,-999,-999.0,-999.0,43,0.00,,,0.00,HomebrewedOnLinux,2013-04-07 00:00:00,
2013-04-06 20:10:00,65.1,42.7,29.94,North,-999,-999.0,-999.0,44,0.00,,,0.00,HomebrewedOnLinux,2013-04-07 00:10:00,
2013-04-06 20:20:00,64.2,42.4,29.94,North,-999,-999.0,-999.0,45,0.00,,,0.00,HomebrewedOnLinux,2013-04-07 00:20:00,
2013-04-06 20:25:00,63.9,42.1,29.94,North,-999,-999.0,-999.0,45,0.00,,,0.00,HomebrewedOnLinux,2013-04-07 00:25:00,
2013-04-06 20:30:00,63.5,41.9,29.94,North,-999,-999.0,-999.0,45,0.00,,,0.00,HomebrewedOnLinux,2013-04-07 00:30:00,
2013-04-06 20:35:00,63.1,42.0,29.94,North,-999,-999.0,-999.0,46,0.00,,,0.00,HomebrewedOnLinux,2013-04-07 00:35:00,
2013-04-06 20:40:00,62.8,41.5,29.94,North,-999,-999.0,-999.0,46,0.00,,,0.00,HomebrewedOnLinux,2013-04-07 00:40:00,
2013-04-06 20:45:00,62.6,41.5,29.94,NW,315,0.0,0.0,46,0.00,,,0.00,HomebrewedOnLinux,2013-04-07 00:45:00,
2013-04-06 20:50:00,62.2,41.8,29.94,NW,315,0.0,0.0,47,0.00,,,0.00,HomebrewedOnLinux,2013-04-07 00:50:00,
2013-04-06 20:55:00,61.9,41.8,29.94,NW,315,0.0,0.0,48,0.00,,,0.00,HomebrewedOnLinux,2013-04-07 00:55:00,
2013-04-06 21:00:00,61.5,41.8,29.94,North,-999,-999.0,-999.0,48,0.00,,,0.00,HomebrewedOnLinux,2013-04-07 01:00:00,
2013-04-06 21:05:00,61.3,41.9,29.94,North,-999,-999.0,-999.0,49,0.00,,,0.00,HomebrewedOnLinux,2013-04-07 01:05:00,
2013-04-06 21:10:00,61.2,41.6,29.94,North,-999,-999.0,-999.0,48,0.00,,,0.00,HomebrewedOnLinux,2013-04-07 01:10:00,
2013-04-06 21:15:00,60.8,42.0,29.94,North,-999,-999.0,-999.0,50,0.00,,,0.00,HomebrewedOnLinux,2013-04-07 01:15:00,
2013-04-06 21:20:00,60.4,41.8,29.94,SSW,202,6.0,6.0,50,0.00,,,0.00,HomebrewedOnLinux,2013-04-07 01:20:00,
2013-04-06 21:25:00,60.6,40.9,29.97,SW,230,3.0,5.0,48,0.00,,,0.00,HomebrewedOnLinux,2013-04-07 01:25:00,
2013-04-06 21:30:00,61.5,40.8,29.97,SW,233,3.0,4.0,46,0.00,,,0.00,HomebrewedOnLinux,2013-04-07 01:30:00,
2013-04-06 21:35:00,62.1,41.0,29.97,WSW,247,3.0,3.0,46,0.00,,,0.00,HomebrewedOnLinux,2013-04-07 01:35:00,
2013-04-06 21:45:00,62.2,41.1,29.97,SW,236,3.0,4.0,46,0.00,,,0.00,HomebrewedOnLinux,2013-04-07 01:45:00,
2013-04-06 21:50:00,62.1,41.0,29.97,SW,236,4.0,6.0,46,0.00,,,0.00,HomebrewedOnLinux,2013-04-07 01:50:00,
2013-04-06 21:55:00,62.1,41.0,29.97,SW,221,2.0,3.0,46,0.00,,,0.00,HomebrewedOnLinux,2013-04-07 01:55:00,
2013-04-06 22:00:00,62.1,41.0,29.97,WSW,247,3.0,3.0,46,0.00,,,0.00,HomebrewedOnLinux,2013-04-07 02:00:00,
2013-04-06 22:05:00,61.9,40.9,29.97,WSW,247,3.0,4.0,46,0.00,,,0.00,HomebrewedOnLinux,2013-04-07 02:05:00,
2013-04-06 22:15:00,61.9,40.9,29.97,WSW,251,4.0,10.0,46,0.00,,,0.00,HomebrewedOnLinux,2013-04-07 02:15:00,
2013-04-06 22:20:00,61.9,40.9,29.97,West,265,2.0,3.0,46,0.00,,,0.00,HomebrewedOnLinux,2013-04-07 02:20:00,
2013-04-06 22:25:00,61.7,40.7,29.97,WSW,256,3.0,4.0,46,0.00,,,0.00,HomebrewedOnLinux,2013-04-07 02:25:00,
2013-04-06 22:30:00,61.7,40.7,29.97,WSW,247,2.0,4.0,46,0.00,,,0.00,HomebrewedOnLinux,2013-04-07 02:30:00,
2013-04-06 22:35:00,61.5,40.5,29.97,West,264,3.0,4.0,46,0.00,,,0.00,HomebrewedOnLinux,2013-04-07 02:35:00,
2013-04-06 22:40:00,61.5,40.5,29.97,NW,304,2.0,3.0,46,0.00,,,0.00,HomebrewedOnLinux,2013-04-07 02:40:00,
2013-04-06 22:50:00,61.0,40.1,29.97,SW,225,3.0,3.0,46,0.00,,,0.00,HomebrewedOnLinux,2013-04-07 02:50:00,
2013-04-06 22:55:00,60.8,39.9,30.00,WSW,240,3.0,4.0,46,0.00,,,0.00,HomebrewedOnLinux,2013-04-07 02:55:00,
2013-04-06 23:00:00,60.8,39.9,30.00,WSW,247,3.0,3.0,46,0.00,,,0.00,HomebrewedOnLinux,2013-04-07 03:00:00,
2013-04-06 23:05:00,60.6,40.3,30.00,WSW,257,3.0,4.0,47,0.00,,,0.00,HomebrewedOnLinux,2013-04-07 03:05:00,
2013-04-06 23:15:00,60.3,39.9,29.97,WSW,254,2.0,3.0,47,0.00,,,0.00,HomebrewedOnLinux,2013-04-07 03:15:00,
2013-04-06 23:25:00,60.1,39.8,29.97,SSW,202,5.0,6.0,47,0.00,,,0.00,HomebrewedOnLinux,2013-04-07 03:25:00,
2013-04-06 23:30:00,60.1,39.8,29.97,West,266,3.0,5.0,47,0.00,,,0.00,HomebrewedOnLinux,2013-04-07 03:30:00,
2013-04-06 23:35:00,59.9,39.6,29.97,North,-999,-999.0,-999.0,47,0.00,,,0.00,HomebrewedOnLinux,2013-04-07 03:35:00,
2013-04-06 23:45:00,59.5,39.7,30.00,SW,236,2.0,2.0,48,0.00,,,0.00,HomebrewedOnLinux,2013-04-07 03:45:00,
2013-04-06 23:55:00,59.4,39.7,30.00,NW,309,3.0,3.0,48,0.00,,,0.00,HomebrewedOnLinux,2013-04-07 03:55:00,